CheckWX is a tool to help pilots better visualize weather data.  It is not intended as a substitute for an official pre-flight weather briefing.

22:01:37 UTC

KBDH METAR
Willmar Municipal-John L Rice Field Airport
Willmar, Minnesota, USA
Current

26 mins ago

KBDH 192136Z AUTO 00000KT 10SM CLR 28/16 A3000 RMK AO2
Observed
Sep-19 @ 21:36 UTC
Visibility
10 SM
Flight Rules
VFR
Cloud Levels
  • Clear skies
Temperature
28°C / 82°F
Dewpoint
16°C / 61°F
Heat Index
28°C / 82°F
Humidity
48%
Altimeter
30" Hg
Pressure
1015.92 hPa
Previous

44 mins ago

KBDH 192118Z AUTO 00000KT 10SM CLR 28/17 A3000 RMK AO2
Observed
Sep-19 @ 21:18 UTC
Visibility
10 SM
Flight Rules
VFR
Cloud Levels
  • Clear skies
Temperature
28°C / 82°F
Dewpoint
17°C / 63°F
Heat Index
28°C / 83°F
Humidity
51%
Altimeter
30" Hg
Pressure
1015.92 hPa
Previous

1 hour ago

KBDH 192056Z AUTO 13004KT 10SM CLR 28/17 A3001 RMK AO2
Observed
Sep-19 @ 20:56 UTC
Wind
  • 130° at 4 KTS
Visibility
10 SM
Flight Rules
VFR
Cloud Levels
  • Clear skies
Temperature
28°C / 82°F
Dewpoint
17°C / 63°F
Heat Index
28°C / 83°F
Humidity
51%
Altimeter
30.01" Hg
Pressure
1016.22 hPa